Main page
Satellite images 10-day forecastsClimateMarine weather Cyclones Lightning AirportsFAQ Newsletter About
Weather : Europe Africa North America South America Asia Australia-Oceania Others
Languages Contact

Waddington, England

RAF Waddington

latitude: 53-10N, longitude: 000-31W, elevation: 68 m


METAR: EGXW 271950Z 22008KT 9999 FEW040 BKN050 08/M01 Q1009 BLU
TAF: missing

Time: 21:39 (20:39 UTC)

Current weather observation

The report was made 49 minutes ago, at 19:50 UTC
Wind 8 kt from the Southwest
Temperature 8°C
Humidity 53%
Pressure 1009 hPa
Visibility 10 km or more
Few clouds at a height of 4000 ft
Broken clouds at a height of 5000 ft

Change units
The information on this site is subject to a disclaimer
Weather : Europe Africa North America South America Asia Australia-Oceania Others
Satellite images 10-day forecastsClimateMarine weather Cyclones Lightning AirportsFAQ Languages Contact Newsletter About